Pandale, Texas
Current Conditions -  °F | °C
As of 2:15 PM on Wednesday 26 Nov 2014 (Local Time) from KOZA Reporting Station
Clear Clear  
Wind Chill: 70°   Ceiling: Unl
Heat Index: 70°   Visibility: 10mi
Dew Point: 21°   Wind: 9mph
Humidity: 16%   Direction: 320°NW
Pressure: 30.23"   Gusts: NA
Location:  30.18°N, 101.55°W
Report Text: KOZA 262015Z AUTO 32008KT 10SM CLR 21/M06 A3023 RMK AO2
Loading
Personal Weather Stations






























Interactive Weather Map New forecast layout! Learn more

10-Day Weather Forecast

Advertisements
Track Severe Weather on mobile